createdAt,value
2022-12-25T00:02:26.101Z,2.70
2022-12-25T00:05:48.931Z,2.80
2022-12-25T00:09:11.188Z,2.70
2022-12-25T00:12:34.644Z,2.70
2022-12-25T00:15:56.999Z,2.60
2022-12-25T00:19:18.993Z,2.60
2022-12-25T00:22:41.023Z,2.60
2022-12-25T00:26:08.172Z,2.60
2022-12-25T00:29:30.260Z,2.40
2022-12-25T00:32:52.242Z,2.40
2022-12-25T00:36:16.845Z,2.30
2022-12-25T00:39:38.981Z,2.40
2022-12-25T00:43:00.935Z,2.30
2022-12-25T00:46:23.016Z,2.30
2022-12-25T00:49:45.551Z,2.40
2022-12-25T00:53:07.490Z,2.40
2022-12-25T00:56:29.525Z,2.50
2022-12-25T00:59:51.613Z,2.60
2022-12-25T01:03:13.645Z,2.70
2022-12-25T01:06:35.680Z,2.70
2022-12-25T01:10:16.526Z,2.70
2022-12-25T01:13:38.584Z,2.70
2022-12-25T01:17:00.619Z,2.70
2022-12-25T01:20:22.567Z,2.70
2022-12-25T01:23:45.143Z,2.70
2022-12-25T01:27:07.096Z,2.70
2022-12-25T01:30:29.359Z,2.80
2022-12-25T01:33:52.096Z,2.80
2022-12-25T01:37:14.152Z,2.80
2022-12-25T01:40:36.112Z,2.80
2022-12-25T01:44:14.272Z,2.80
2022-12-25T01:47:36.275Z,2.70
2022-12-25T01:51:06.584Z,2.70
2022-12-25T01:54:32.429Z,2.70
2022-12-25T01:57:54.797Z,2.60
2022-12-25T02:01:16.888Z,2.50
2022-12-25T02:04:43.761Z,2.50
2022-12-25T02:08:14.294Z,2.40
2022-12-25T02:11:54.621Z,2.40
2022-12-25T02:15:22.737Z,2.40
2022-12-25T02:18:54.714Z,2.30
2022-12-25T02:22:38.209Z,2.30
2022-12-25T02:26:26.519Z,2.20
2022-12-25T02:29:59.855Z,2.30
2022-12-25T02:33:50.131Z,2.40
2022-12-25T02:37:38.332Z,2.40
2022-12-25T02:41:07.914Z,2.40
2022-12-25T02:44:49.901Z,2.40
2022-12-25T02:48:32.005Z,2.50
2022-12-25T02:52:24.021Z,2.40
2022-12-25T02:56:07.624Z,2.40
2022-12-25T02:59:50.107Z,2.40
2022-12-25T03:03:33.581Z,2.30
2022-12-25T03:07:23.580Z,2.30
2022-12-25T03:11:08.496Z,2.20
2022-12-25T03:14:49.091Z,2.30
2022-12-25T03:18:14.176Z,2.30
2022-12-25T03:21:54.851Z,2.30
2022-12-25T03:25:37.067Z,2.30
2022-12-25T03:28:59.074Z,2.30
2022-12-25T03:32:29.956Z,2.30
2022-12-25T03:36:09.495Z,2.20
2022-12-25T03:39:56.869Z,2.10
2022-12-25T03:43:30.794Z,2.10
2022-12-25T03:47:23.512Z,2.10
2022-12-25T03:51:10.308Z,2.10
2022-12-25T03:54:53.761Z,2.00
2022-12-25T03:58:43.386Z,2.10
2022-12-25T04:02:24.074Z,2.10
2022-12-25T04:06:04.561Z,2.10
2022-12-25T04:09:45.278Z,2.00
2022-12-25T04:13:25.814Z,2.00
2022-12-25T04:17:06.603Z,2.00
2022-12-25T04:20:47.359Z,2.00
2022-12-25T04:24:30.124Z,2.00
2022-12-25T04:28:10.672Z,2.00
2022-12-25T04:31:51.573Z,2.00
2022-12-25T04:35:32.290Z,2.10
2022-12-25T04:38:54.315Z,2.00
2022-12-25T04:42:17.521Z,2.10
2022-12-25T04:45:39.474Z,2.10
2022-12-25T04:49:01.455Z,2.10
2022-12-25T04:52:23.515Z,2.10
2022-12-25T04:55:45.645Z,2.20
2022-12-25T04:59:07.720Z,2.20
2022-12-25T05:02:29.855Z,2.20
2022-12-25T05:05:51.945Z,2.20
2022-12-25T05:09:13.894Z,2.30
2022-12-25T05:12:35.974Z,2.60
2022-12-25T05:15:58.067Z,2.80
2022-12-25T05:19:20.090Z,2.90
2022-12-25T05:22:42.637Z,3.00
2022-12-25T05:26:06.955Z,3.10
2022-12-25T05:29:28.926Z,3.30
2022-12-25T05:32:50.905Z,3.30
2022-12-25T05:36:14.465Z,3.50
2022-12-25T05:39:36.452Z,3.60
2022-12-25T05:42:58.600Z,3.70
2022-12-25T05:46:20.657Z,3.80
2022-12-25T05:49:43.096Z,3.90
2022-12-25T05:53:15.584Z,3.90
2022-12-25T05:56:37.906Z,3.90
2022-12-25T05:59:59.882Z,3.90
2022-12-25T06:03:22.188Z,3.90
2022-12-25T06:06:44.251Z,3.90
2022-12-25T06:10:07.115Z,4.00
2022-12-25T06:13:29.233Z,3.90
2022-12-25T06:16:52.830Z,4.00
2022-12-25T06:20:14.878Z,4.00
2022-12-25T06:23:38.567Z,4.00
2022-12-25T06:27:00.569Z,4.10
2022-12-25T06:30:22.921Z,4.10
2022-12-25T06:33:45.596Z,4.10
2022-12-25T06:37:07.705Z,4.20
2022-12-25T06:40:29.672Z,4.30
2022-12-25T06:43:53.883Z,4.40
2022-12-25T06:47:15.813Z,4.40
2022-12-25T06:50:43.402Z,4.40
2022-12-25T06:54:06.036Z,4.50
2022-12-25T06:57:28.044Z,4.40
2022-12-25T07:00:50.005Z,4.50
2022-12-25T07:04:36.821Z,4.50
2022-12-25T07:07:58.855Z,4.50
2022-12-25T07:11:21.769Z,4.50
2022-12-25T07:14:45.170Z,4.50
2022-12-25T07:18:08.442Z,4.60
2022-12-25T07:21:30.481Z,4.70
2022-12-25T07:24:52.467Z,4.70
2022-12-25T07:28:15.066Z,4.80
2022-12-25T07:31:38.497Z,4.80
2022-12-25T07:35:00.576Z,4.80
2022-12-25T07:38:22.664Z,4.90
2022-12-25T07:41:44.970Z,4.90
2022-12-25T07:45:10.208Z,4.90
2022-12-25T07:48:32.405Z,5.00
2022-12-25T07:51:54.409Z,5.00
2022-12-25T07:55:16.586Z,5.10
2022-12-25T07:58:39.373Z,5.20
2022-12-25T08:02:01.440Z,5.30
2022-12-25T08:05:23.600Z,5.30
2022-12-25T08:08:45.879Z,5.40
2022-12-25T08:12:07.938Z,5.50
2022-12-25T08:15:31.103Z,5.60
2022-12-25T08:18:53.927Z,5.70
2022-12-25T08:22:15.997Z,5.80
2022-12-25T08:25:37.937Z,5.90
2022-12-25T08:29:00.001Z,6.00
2022-12-25T08:32:21.973Z,6.10
2022-12-25T08:35:43.993Z,6.20
2022-12-25T08:39:06.054Z,6.40
2022-12-25T08:42:28.163Z,6.60
2022-12-25T08:45:50.245Z,6.70
2022-12-25T08:49:12.311Z,6.90
2022-12-25T08:52:34.420Z,7.00
2022-12-25T08:56:00.859Z,7.00
2022-12-25T08:59:22.843Z,7.00
2022-12-25T09:02:45.038Z,7.10
2022-12-25T09:06:10.869Z,7.10
2022-12-25T09:09:32.832Z,7.20
2022-12-25T09:12:54.783Z,7.30
2022-12-25T09:16:20.788Z,7.50
2022-12-25T09:19:42.917Z,7.60
2022-12-25T09:23:09.968Z,7.80
2022-12-25T09:26:35.416Z,7.80
2022-12-25T09:29:57.583Z,7.80
2022-12-25T09:33:21.346Z,8.00
2022-12-25T09:36:43.269Z,8.10
2022-12-25T09:40:06.074Z,8.30
2022-12-25T09:43:31.285Z,8.30
2022-12-25T09:46:58.918Z,8.30
2022-12-25T09:50:46.591Z,8.40
2022-12-25T09:54:33.269Z,8.60
2022-12-25T09:57:58.507Z,8.90
2022-12-25T10:01:40.816Z,9.00
2022-12-25T10:05:23.402Z,9.20
2022-12-25T10:09:21.267Z,9.20
2022-12-25T10:13:16.886Z,9.30
2022-12-25T10:17:08.495Z,9.40
2022-12-25T10:20:49.225Z,9.60
2022-12-25T10:24:35.615Z,9.70
2022-12-25T10:28:02.815Z,9.60
2022-12-25T10:31:27.991Z,9.70
2022-12-25T10:34:50.383Z,9.70
2022-12-25T10:38:18.397Z,9.60
2022-12-25T10:41:43.399Z,9.60
2022-12-25T10:45:09.154Z,9.70
2022-12-25T10:48:33.539Z,9.80
2022-12-25T10:51:55.528Z,9.90
2022-12-25T10:55:26.540Z,10.00
2022-12-25T10:58:50.408Z,10.10
2022-12-25T11:02:39.172Z,10.20
2022-12-25T11:06:03.033Z,10.30
2022-12-25T11:09:25.358Z,10.40
2022-12-25T11:12:47.501Z,10.50
2022-12-25T11:16:15.277Z,10.60
2022-12-25T11:19:37.340Z,10.70
2022-12-25T11:22:59.293Z,10.80
2022-12-25T11:26:21.770Z,10.90
2022-12-25T11:29:54.234Z,11.20
2022-12-25T11:33:18.209Z,11.30
2022-12-25T11:36:48.685Z,11.50
2022-12-25T11:40:21.187Z,11.60
2022-12-25T11:43:50.027Z,11.50
2022-12-25T11:47:39.402Z,11.60
2022-12-25T11:51:04.968Z,11.70
2022-12-25T11:54:32.123Z,11.60
2022-12-25T11:57:59.198Z,11.60
2022-12-25T12:02:01.936Z,11.50
2022-12-25T12:05:34.087Z,11.40
2022-12-25T12:09:17.582Z,11.40
2022-12-25T12:13:05.224Z,11.40
2022-12-25T12:16:27.485Z,11.40
2022-12-25T12:19:49.693Z,11.40
2022-12-25T12:23:16.681Z,11.40
2022-12-25T12:26:42.589Z,11.60
2022-12-25T12:30:07.707Z,11.80
2022-12-25T12:33:37.787Z,11.90
2022-12-25T12:37:06.460Z,12.00
2022-12-25T12:40:39.104Z,12.10
2022-12-25T12:44:04.685Z,12.10
2022-12-25T12:47:43.981Z,12.00
2022-12-25T12:51:12.507Z,12.00
2022-12-25T12:54:53.469Z,11.90
2022-12-25T12:58:51.141Z,11.80
2022-12-25T13:02:32.150Z,11.70
2022-12-25T13:05:59.422Z,11.60
2022-12-25T13:09:30.410Z,11.50
2022-12-25T13:12:59.506Z,11.50
2022-12-25T13:16:36.207Z,11.40
2022-12-25T13:20:00.453Z,11.40
2022-12-25T13:23:35.980Z,11.20
2022-12-25T13:26:58.732Z,11.20
2022-12-25T13:30:22.038Z,11.20
2022-12-25T13:33:58.087Z,11.10
2022-12-25T13:37:25.978Z,11.00
2022-12-25T13:41:12.142Z,11.00
2022-12-25T13:44:39.628Z,11.00
2022-12-25T13:48:19.093Z,10.90
2022-12-25T13:51:41.262Z,10.80
2022-12-25T13:55:13.135Z,10.70
2022-12-25T13:58:37.187Z,10.70
2022-12-25T14:02:00.032Z,10.60
2022-12-25T14:05:26.794Z,10.60
2022-12-25T14:08:49.749Z,10.60
2022-12-25T14:12:18.970Z,10.50
2022-12-25T14:15:43.671Z,10.40
2022-12-25T14:19:29.077Z,10.40
2022-12-25T14:22:53.326Z,10.30
2022-12-25T14:26:29.456Z,10.20
2022-12-25T14:29:54.803Z,10.20
2022-12-25T14:33:20.524Z,10.20
2022-12-25T14:36:42.667Z,10.10
2022-12-25T14:40:30.922Z,10.10
2022-12-25T14:43:56.026Z,10.10
2022-12-25T14:47:20.240Z,10.00
2022-12-25T14:50:51.157Z,10.00
2022-12-25T14:54:20.025Z,9.90
2022-12-25T14:57:55.612Z,9.90
2022-12-25T15:01:34.638Z,9.80
2022-12-25T15:04:56.860Z,9.80
2022-12-25T15:08:22.391Z,9.70
2022-12-25T15:11:51.086Z,9.70
2022-12-25T15:15:13.047Z,9.60
2022-12-25T15:18:39.913Z,9.60
2022-12-25T15:22:02.562Z,9.50
2022-12-25T15:25:24.572Z,9.40
2022-12-25T15:28:46.621Z,9.40
2022-12-25T15:32:20.651Z,9.40
2022-12-25T15:35:44.449Z,9.30
2022-12-25T15:39:07.722Z,9.20
2022-12-25T15:42:29.611Z,9.20
2022-12-25T15:45:51.558Z,9.10
2022-12-25T15:49:15.364Z,9.10
2022-12-25T15:52:37.339Z,9.00
2022-12-25T15:55:59.273Z,9.00
2022-12-25T15:59:21.962Z,9.00
2022-12-25T16:02:44.341Z,9.00
2022-12-25T16:06:06.507Z,8.90
2022-12-25T16:09:28.500Z,8.90
2022-12-25T16:12:50.457Z,8.90
2022-12-25T16:16:12.507Z,8.90
2022-12-25T16:19:34.556Z,8.90
2022-12-25T16:22:56.512Z,8.90
2022-12-25T16:26:18.759Z,8.90
2022-12-25T16:29:42.293Z,8.90
2022-12-25T16:33:04.367Z,8.80
2022-12-25T16:36:27.159Z,8.80
2022-12-25T16:39:49.239Z,8.80
2022-12-25T16:43:11.146Z,8.80
2022-12-25T16:46:33.144Z,8.80
2022-12-25T16:49:55.101Z,8.80
2022-12-25T16:53:17.105Z,8.80
2022-12-25T16:56:39.132Z,8.70
2022-12-25T17:00:01.307Z,8.70
2022-12-25T17:03:23.391Z,8.70
2022-12-25T17:06:45.618Z,8.70
2022-12-25T17:10:08.275Z,8.70
2022-12-25T17:13:30.643Z,8.70
2022-12-25T17:16:53.141Z,8.70
2022-12-25T17:20:16.004Z,8.70
2022-12-25T17:23:38.985Z,8.60
2022-12-25T17:27:01.372Z,8.60
2022-12-25T17:30:33.949Z,8.60
2022-12-25T17:33:56.134Z,8.60
2022-12-25T17:37:18.669Z,8.60
2022-12-25T17:40:40.770Z,8.60
2022-12-25T17:44:03.130Z,8.60
2022-12-25T17:47:26.207Z,8.50
2022-12-25T17:50:48.920Z,8.50
2022-12-25T17:54:11.894Z,8.50
2022-12-25T17:57:34.694Z,8.50
2022-12-25T18:00:57.739Z,8.50
2022-12-25T18:04:20.190Z,8.50
2022-12-25T18:07:43.396Z,8.60
2022-12-25T18:11:09.808Z,8.50
2022-12-25T18:14:33.028Z,8.60
2022-12-25T18:17:55.419Z,8.60
2022-12-25T18:21:17.967Z,8.60
2022-12-25T18:24:41.353Z,8.60
2022-12-25T18:28:05.973Z,8.60
2022-12-25T18:31:32.913Z,8.60
